createdAt,value
2018-05-08T00:00:38.738Z,14.56
2018-05-08T00:02:30.485Z,14.61
2018-05-08T00:03:30.422Z,14.66
2018-05-08T00:05:22.191Z,14.59
2018-05-08T00:06:22.114Z,14.59
2018-05-08T00:08:13.893Z,14.45
2018-05-08T00:09:13.805Z,14.53
2018-05-08T00:11:05.565Z,14.42
2018-05-08T00:12:05.497Z,14.52
2018-05-08T00:13:57.277Z,14.53
2018-05-08T00:14:57.204Z,14.52
2018-05-08T00:16:48.968Z,14.53
2018-05-08T00:17:48.913Z,14.57
2018-05-08T00:19:40.705Z,14.61
2018-05-08T00:20:40.624Z,14.66
2018-05-08T00:22:32.373Z,14.52
2018-05-08T00:23:32.313Z,14.44
2018-05-08T00:25:24.077Z,14.44
2018-05-08T00:26:24.006Z,14.42
2018-05-08T00:28:15.771Z,14.29
2018-05-08T00:29:15.707Z,14.29
2018-05-08T00:31:07.495Z,14.29
2018-05-08T00:32:07.418Z,14.46
2018-05-08T00:33:59.189Z,14.44
2018-05-08T00:34:59.112Z,14.42
2018-05-08T00:36:50.870Z,14.42
2018-05-08T00:37:50.825Z,14.38
2018-05-08T00:39:42.573Z,14.17
2018-05-08T00:40:42.495Z,14.20
2018-05-08T00:42:34.264Z,14.06
2018-05-08T00:43:34.190Z,14.04
2018-05-08T00:45:25.961Z,14.02
2018-05-08T00:46:25.895Z,14.08
2018-05-08T00:48:17.648Z,13.94
2018-05-08T00:49:17.582Z,13.84
2018-05-08T00:51:09.363Z,13.63
2018-05-08T00:52:09.288Z,13.73
2018-05-08T00:54:01.060Z,13.61
2018-05-08T00:55:00.998Z,13.59
2018-05-08T00:56:52.765Z,13.66
2018-05-08T00:57:52.694Z,13.65
2018-05-08T00:59:44.454Z,13.59
2018-05-08T01:00:44.386Z,13.68
2018-05-08T01:02:36.149Z,13.69
2018-05-08T01:03:36.090Z,13.73
2018-05-08T01:05:27.849Z,13.50
2018-05-08T01:06:27.778Z,13.48
2018-05-08T01:08:19.571Z,13.54
2018-05-08T01:09:19.496Z,13.59
2018-05-08T01:11:11.277Z,13.54
2018-05-08T01:12:11.199Z,13.55
2018-05-08T01:14:02.946Z,13.41
2018-05-08T01:15:02.889Z,13.50
2018-05-08T01:16:54.652Z,13.47
2018-05-08T01:17:54.572Z,13.54
2018-05-08T01:19:46.366Z,13.63
2018-05-08T01:20:46.284Z,13.59
2018-05-08T01:22:38.031Z,13.65
2018-05-08T01:23:37.972Z,13.54
2018-05-08T01:25:29.745Z,13.65
2018-05-08T01:26:29.664Z,13.62
2018-05-08T01:28:21.430Z,13.51
2018-05-08T01:29:21.359Z,13.51
2018-05-08T01:31:13.140Z,13.43
2018-05-08T01:32:13.068Z,13.43
2018-05-08T01:34:04.821Z,13.29
2018-05-08T01:35:04.755Z,13.28
2018-05-08T01:36:56.535Z,13.29
2018-05-08T01:37:56.466Z,13.25
2018-05-08T01:39:48.210Z,13.31
2018-05-08T01:40:48.149Z,13.31
2018-05-08T01:42:39.905Z,13.25
2018-05-08T01:43:39.835Z,13.29
2018-05-08T01:45:31.610Z,13.22
2018-05-08T01:46:31.536Z,13.22
2018-05-08T01:48:23.298Z,13.03
2018-05-08T01:49:23.236Z,13.01
2018-05-08T01:51:15.035Z,13.09
2018-05-08T01:52:14.954Z,13.06
2018-05-08T01:54:06.705Z,13.04
2018-05-08T01:55:06.643Z,12.92
2018-05-08T01:56:58.408Z,12.96
2018-05-08T01:57:58.337Z,12.91
2018-05-08T01:59:50.120Z,12.94
2018-05-08T02:00:50.063Z,12.89
2018-05-08T02:02:41.823Z,13.06
2018-05-08T02:03:41.744Z,13.03
2018-05-08T02:05:33.519Z,13.04
2018-05-08T02:06:33.433Z,13.04
2018-05-08T02:08:25.188Z,12.95
2018-05-08T02:09:25.130Z,12.91
2018-05-08T02:11:16.897Z,12.94
2018-05-08T02:12:16.820Z,12.91
2018-05-08T02:14:08.571Z,12.80
2018-05-08T02:15:08.507Z,12.88
2018-05-08T02:17:00.288Z,12.91
2018-05-08T02:18:00.209Z,12.89
2018-05-08T02:19:51.963Z,12.89
2018-05-08T02:20:51.899Z,12.85
2018-05-08T02:22:43.667Z,12.94
2018-05-08T02:23:43.585Z,12.91
2018-05-08T02:25:35.345Z,12.96
2018-05-08T02:26:35.284Z,12.88
2018-05-08T02:28:27.052Z,12.91
2018-05-08T02:29:26.980Z,12.85
2018-05-08T02:31:18.736Z,12.77
2018-05-08T02:32:18.659Z,12.67
2018-05-08T02:34:10.428Z,12.66
2018-05-08T02:35:10.372Z,12.56
2018-05-08T02:37:02.118Z,12.44
2018-05-08T02:38:02.047Z,12.41
2018-05-08T02:39:53.849Z,12.49
2018-05-08T02:40:53.775Z,12.54
2018-05-08T02:42:45.553Z,12.59
2018-05-08T02:43:45.481Z,12.63
2018-05-08T02:45:37.244Z,12.61
2018-05-08T02:46:37.182Z,12.71
2018-05-08T02:48:28.959Z,12.71
2018-05-08T02:49:28.894Z,12.85
2018-05-08T02:51:20.648Z,12.77
2018-05-08T02:52:20.575Z,12.87
2018-05-08T02:54:12.339Z,12.81
2018-05-08T02:55:12.276Z,12.73
2018-05-08T02:57:04.061Z,12.73
2018-05-08T02:58:03.988Z,12.66
2018-05-08T02:59:55.740Z,12.62
2018-05-08T03:00:55.678Z,12.62
2018-05-08T03:02:47.452Z,12.62
2018-05-08T03:03:47.383Z,12.69
2018-05-08T03:05:39.139Z,12.67
2018-05-08T03:06:39.080Z,12.62
2018-05-08T03:08:30.843Z,12.71
2018-05-08T03:09:30.769Z,12.67
2018-05-08T03:11:22.518Z,12.62
2018-05-08T03:12:22.472Z,12.69
2018-05-08T03:14:14.234Z,12.66
2018-05-08T03:15:14.167Z,12.63
2018-05-08T03:17:05.916Z,12.62
2018-05-08T03:18:05.845Z,12.49
2018-05-08T03:19:57.622Z,12.29
2018-05-08T03:20:57.562Z,12.40
2018-05-08T03:22:49.320Z,12.41
2018-05-08T03:23:49.247Z,12.34
2018-05-08T03:25:41.026Z,12.40
2018-05-08T03:26:40.962Z,12.41
2018-05-08T03:28:32.733Z,12.48
2018-05-08T03:29:32.649Z,12.55
2018-05-08T03:31:24.404Z,12.59
2018-05-08T03:32:24.347Z,12.55
2018-05-08T03:34:16.119Z,12.69
2018-05-08T03:35:16.022Z,12.67
2018-05-08T03:37:07.786Z,12.62
2018-05-08T03:38:07.712Z,12.62
2018-05-08T03:39:59.490Z,12.63
2018-05-08T03:40:59.395Z,12.58
2018-05-08T03:42:51.178Z,12.54
2018-05-08T03:43:51.104Z,12.63
2018-05-08T03:45:42.845Z,12.63
2018-05-08T03:46:42.783Z,12.74
2018-05-08T03:48:34.540Z,12.79
2018-05-08T03:49:34.475Z,12.66
2018-05-08T03:51:26.244Z,12.70
2018-05-08T03:52:26.187Z,12.79
2018-05-08T03:54:17.981Z,12.62
2018-05-08T03:55:17.910Z,12.62
2018-05-08T03:57:09.705Z,12.71
2018-05-08T03:58:09.637Z,12.58
2018-05-08T04:00:01.393Z,12.55
2018-05-08T04:01:01.326Z,12.59
2018-05-08T04:02:53.150Z,12.69
2018-05-08T04:03:53.023Z,12.62
2018-05-08T04:05:44.825Z,12.71
2018-05-08T04:06:44.746Z,12.71
2018-05-08T04:08:36.506Z,12.88
2018-05-08T04:09:36.433Z,12.81
2018-05-08T04:11:28.227Z,12.80
2018-05-08T04:12:28.157Z,12.76
2018-05-08T04:14:19.918Z,12.77
2018-05-08T04:15:19.851Z,12.85
2018-05-08T04:17:11.613Z,12.95
2018-05-08T04:18:11.551Z,12.87
2018-05-08T04:20:03.308Z,12.77
2018-05-08T04:21:03.313Z,12.84
2018-05-08T04:22:54.979Z,12.92
2018-05-08T04:23:54.920Z,12.88
2018-05-08T04:25:46.699Z,12.88
2018-05-08T04:26:46.626Z,12.99
2018-05-08T04:28:38.386Z,12.99
2018-05-08T04:29:38.313Z,12.98
2018-05-08T04:31:30.063Z,12.89
2018-05-08T04:32:30.006Z,12.91
2018-05-08T04:34:21.778Z,12.88
2018-05-08T04:35:21.705Z,12.95
2018-05-08T04:37:13.448Z,12.88
2018-05-08T04:38:13.387Z,12.87
2018-05-08T04:40:05.139Z,13.01
2018-05-08T04:41:05.067Z,13.09
2018-05-08T04:42:56.839Z,13.13
2018-05-08T04:43:56.781Z,13.21
2018-05-08T04:45:48.575Z,13.39
2018-05-08T04:46:48.502Z,13.36
2018-05-08T04:48:40.256Z,13.44
2018-05-08T04:49:40.191Z,13.46
2018-05-08T04:51:31.945Z,13.48
2018-05-08T04:52:31.872Z,13.55
2018-05-08T04:54:23.639Z,13.57
2018-05-08T04:55:23.565Z,13.59
2018-05-08T04:57:15.320Z,13.71
2018-05-08T04:58:15.249Z,13.81
2018-05-08T05:00:07.007Z,13.96
2018-05-08T05:01:06.943Z,14.02
2018-05-08T05:02:58.707Z,14.09
2018-05-08T05:03:58.641Z,14.13
2018-05-08T05:05:50.441Z,14.31
2018-05-08T05:06:50.392Z,14.42
2018-05-08T05:08:42.128Z,14.56
2018-05-08T05:09:42.058Z,14.82
2018-05-08T05:11:33.848Z,14.97
2018-05-08T05:12:33.762Z,15.20
2018-05-08T05:14:25.561Z,15.64
2018-05-08T05:15:25.463Z,15.96
2018-05-08T05:17:17.285Z,16.50
2018-05-08T05:18:17.204Z,16.90
2018-05-08T05:20:08.970Z,18.17
2018-05-08T05:21:08.907Z,19.15
2018-05-08T05:23:00.673Z,20.12
2018-05-08T05:24:00.618Z,20.76
2018-05-08T05:25:52.381Z,21.01
2018-05-08T05:26:52.306Z,21.27
2018-05-08T05:28:44.074Z,21.81
2018-05-08T05:29:44.014Z,22.49
2018-05-08T05:31:35.839Z,23.49
2018-05-08T05:32:35.718Z,23.87
2018-05-08T05:34:27.495Z,24.30
2018-05-08T05:35:27.444Z,24.60
2018-05-08T05:37:19.226Z,24.68
2018-05-08T05:38:19.138Z,24.33
2018-05-08T05:40:10.933Z,24.37
2018-05-08T05:41:10.865Z,24.52
2018-05-08T05:43:02.651Z,24.24
2018-05-08T05:44:02.588Z,24.64
2018-05-08T05:45:54.367Z,24.33
2018-05-08T05:46:54.283Z,24.18
2018-05-08T05:48:46.076Z,25.01
2018-05-08T05:49:46.011Z,24.79
2018-05-08T05:51:37.799Z,24.86
2018-05-08T05:52:37.731Z,24.24
2018-05-08T05:54:29.543Z,24.15
2018-05-08T05:55:29.509Z,24.05
2018-05-08T05:57:21.258Z,24.12
2018-05-08T05:58:21.195Z,24.56
2018-05-08T06:00:12.974Z,24.39
2018-05-08T06:01:12.909Z,24.48
2018-05-08T06:03:04.683Z,24.74
2018-05-08T06:04:04.617Z,25.01
2018-05-08T06:05:56.450Z,25.12
2018-05-08T06:06:56.338Z,25.01
2018-05-08T06:08:48.119Z,25.81
2018-05-08T06:09:48.157Z,26.06
2018-05-08T06:11:39.858Z,25.98
2018-05-08T06:12:39.792Z,25.97
2018-05-08T06:14:31.575Z,26.50
2018-05-08T06:15:31.523Z,26.59
2018-05-08T06:17:23.318Z,26.84
2018-05-08T06:18:23.241Z,26.72
2018-05-08T06:20:15.057Z,26.19
2018-05-08T06:21:14.999Z,25.46
2018-05-08T06:23:06.765Z,26.00
2018-05-08T06:24:06.694Z,26.00
2018-05-08T06:25:58.466Z,24.61
2018-05-08T06:26:58.405Z,24.99
2018-05-08T06:28:50.168Z,25.96
2018-05-08T06:29:50.119Z,26.31
2018-05-08T06:31:41.901Z,27.13
2018-05-08T06:32:41.837Z,27.45
2018-05-08T06:34:33.606Z,27.48
2018-05-08T06:35:33.569Z,26.66
2018-05-08T06:37:25.331Z,26.93
2018-05-08T06:38:25.273Z,27.11
2018-05-08T06:40:17.053Z,26.72
2018-05-08T06:41:16.995Z,27.01
2018-05-08T06:43:08.788Z,27.50
2018-05-08T06:44:08.727Z,27.24
2018-05-08T06:46:00.505Z,26.73
2018-05-08T06:47:00.455Z,26.64
2018-05-08T06:48:52.230Z,27.24
2018-05-08T06:49:52.170Z,27.84
2018-05-08T06:51:43.971Z,28.70
2018-05-08T06:52:43.912Z,29.23
2018-05-08T06:54:35.675Z,28.85
2018-05-08T06:55:35.623Z,28.88
2018-05-08T06:57:27.406Z,29.29
2018-05-08T06:58:27.343Z,29.84
2018-05-08T07:00:19.151Z,30.23
2018-05-08T07:01:19.089Z,30.54
2018-05-08T07:03:10.875Z,30.76
2018-05-08T07:04:10.809Z,30.54
2018-05-08T07:06:02.593Z,30.30
2018-05-08T07:07:02.545Z,30.08
2018-05-08T07:08:54.332Z,30.28
2018-05-08T07:09:54.270Z,30.73
2018-05-08T07:11:46.053Z,31.10
2018-05-08T07:12:45.995Z,31.05
2018-05-08T07:14:37.775Z,31.46
2018-05-08T07:15:37.821Z,31.50
2018-05-08T07:17:29.502Z,31.69
2018-05-08T07:18:29.445Z,31.69
2018-05-08T07:20:21.219Z,31.27
2018-05-08T07:21:21.173Z,31.54
2018-05-08T07:23:12.956Z,31.74
2018-05-08T07:24:12.896Z,31.72
2018-05-08T07:26:04.704Z,31.91
2018-05-08T07:27:04.646Z,31.98
2018-05-08T07:28:56.460Z,31.95
2018-05-08T07:29:56.439Z,31.87
2018-05-08T07:31:48.191Z,31.65
2018-05-08T07:32:48.148Z,31.57
2018-05-08T07:34:39.948Z,31.10
2018-05-08T07:35:39.887Z,31.37
2018-05-08T07:37:31.677Z,29.69
2018-05-08T07:38:31.626Z,30.01
2018-05-08T07:40:23.409Z,30.29
2018-05-08T07:41:23.348Z,30.64
2018-05-08T07:43:15.137Z,29.76
2018-05-08T07:44:15.075Z,28.91
2018-05-08T07:46:06.851Z,28.67
2018-05-08T07:47:06.850Z,27.90
2018-05-08T07:48:58.586Z,28.94
2018-05-08T07:49:58.531Z,29.62
2018-05-08T07:51:50.348Z,29.62
2018-05-08T07:52:50.255Z,29.73
2018-05-08T07:54:42.036Z,29.03
2018-05-08T07:55:41.980Z,29.25
2018-05-08T07:57:33.782Z,28.70
2018-05-08T07:58:33.701Z,28.33
2018-05-08T08:00:25.490Z,28.21
2018-05-08T08:01:25.428Z,27.96
2018-05-08T08:03:17.291Z,28.70
2018-05-08T08:04:17.150Z,28.83
2018-05-08T08:06:08.925Z,29.47
2018-05-08T08:07:08.877Z,29.08
2018-05-08T08:09:00.690Z,29.48
2018-05-08T08:10:00.601Z,29.86
2018-05-08T08:11:52.378Z,30.72
2018-05-08T08:12:52.327Z,31.00
2018-05-08T08:14:44.115Z,30.94
2018-05-08T08:15:44.057Z,31.34
2018-05-08T08:17:35.831Z,31.92
2018-05-08T08:18:35.860Z,31.35
2018-05-08T08:20:27.599Z,31.18
2018-05-08T08:21:27.530Z,29.97
2018-05-08T08:23:19.318Z,30.56
2018-05-08T08:24:19.269Z,30.53
2018-05-08T08:26:11.055Z,31.16
2018-05-08T08:27:10.995Z,31.37
2018-05-08T08:29:02.799Z,31.12
2018-05-08T08:30:02.730Z,30.98
2018-05-08T08:31:54.505Z,31.60
2018-05-08T08:32:54.454Z,31.95
2018-05-08T08:34:46.240Z,32.10
2018-05-08T08:35:46.183Z,29.97
2018-05-08T08:37:37.953Z,29.44
2018-05-08T08:38:37.903Z,29.37
2018-05-08T08:40:29.691Z,30.19
2018-05-08T08:41:29.629Z,30.68
2018-05-08T08:43:21.406Z,31.62
2018-05-08T08:44:21.362Z,32.28
2018-05-08T08:46:13.155Z,32.21
2018-05-08T08:47:13.085Z,31.98
2018-05-08T08:49:04.858Z,31.84
2018-05-08T08:50:04.815Z,31.85
2018-05-08T08:51:56.604Z,31.15
2018-05-08T08:52:56.540Z,30.96
2018-05-08T08:54:48.328Z,30.97
2018-05-08T08:55:48.266Z,30.81
2018-05-08T08:57:40.055Z,30.61
2018-05-08T08:58:40.010Z,30.70
2018-05-08T09:00:31.907Z,30.90
2018-05-08T09:01:31.763Z,31.45
2018-05-08T09:03:23.518Z,32.10
2018-05-08T09:04:23.471Z,31.37
2018-05-08T09:06:15.261Z,30.63
2018-05-08T09:07:15.207Z,31.01
2018-05-08T09:09:07.010Z,31.71
2018-05-08T09:10:06.958Z,31.90
2018-05-08T09:11:58.844Z,31.90
2018-05-08T09:12:58.725Z,30.78
2018-05-08T09:14:50.519Z,30.25
2018-05-08T09:15:50.474Z,30.21
2018-05-08T09:17:42.259Z,29.71
2018-05-08T09:18:42.201Z,29.82
2018-05-08T09:20:33.987Z,30.59
2018-05-08T09:21:33.947Z,31.03
2018-05-08T09:23:25.732Z,31.01
2018-05-08T09:24:25.675Z,30.83
2018-05-08T09:26:17.496Z,30.57
2018-05-08T09:27:17.445Z,30.26
2018-05-08T09:29:09.212Z,31.05
2018-05-08T09:30:09.175Z,31.32
2018-05-08T09:32:00.950Z,31.72
2018-05-08T09:33:00.897Z,32.21
2018-05-08T09:34:52.727Z,32.17
2018-05-08T09:35:52.678Z,30.78
2018-05-08T09:37:44.461Z,30.45
2018-05-08T09:38:44.403Z,30.51
2018-05-08T09:40:36.177Z,30.91
2018-05-08T09:41:36.130Z,31.01
2018-05-08T09:43:27.913Z,30.66
2018-05-08T09:44:27.860Z,30.86
2018-05-08T09:46:19.627Z,29.84
2018-05-08T09:47:19.584Z,29.48
2018-05-08T09:49:11.381Z,30.10
2018-05-08T09:50:11.309Z,29.81
2018-05-08T09:52:03.094Z,30.22
2018-05-08T09:53:03.037Z,30.48
2018-05-08T09:54:54.874Z,30.97
2018-05-08T09:55:54.763Z,30.07
2018-05-08T09:57:46.544Z,29.02
2018-05-08T09:58:46.490Z,29.10
2018-05-08T10:00:38.263Z,28.82
2018-05-08T10:01:38.261Z,29.00
2018-05-08T10:03:29.996Z,30.07
2018-05-08T10:04:29.939Z,30.51
2018-05-08T10:06:21.746Z,30.75
2018-05-08T10:07:21.704Z,30.59
2018-05-08T10:09:13.477Z,29.76
2018-05-08T10:10:13.417Z,29.82
2018-05-08T10:12:05.197Z,29.63
2018-05-08T10:13:05.149Z,29.10
2018-05-08T10:14:56.930Z,28.28
2018-05-08T10:15:56.875Z,28.69
2018-05-08T10:17:48.672Z,28.48
2018-05-08T10:18:48.602Z,28.83
2018-05-08T10:20:40.489Z,29.32
2018-05-08T10:21:40.368Z,28.46
2018-05-08T10:23:32.303Z,28.67
2018-05-08T10:24:32.099Z,28.57
2018-05-08T10:26:23.987Z,28.77
2018-05-08T10:27:23.840Z,29.17
2018-05-08T10:29:15.619Z,28.32
2018-05-08T10:30:15.560Z,28.30
2018-05-08T10:32:07.351Z,28.65
2018-05-08T10:33:07.400Z,28.82
2018-05-08T10:34:59.111Z,29.25
2018-05-08T10:35:59.062Z,29.27
2018-05-08T10:37:50.877Z,29.36
2018-05-08T10:38:50.813Z,29.30
2018-05-08T10:40:42.627Z,29.26
2018-05-08T10:41:42.566Z,28.82
2018-05-08T10:43:34.372Z,29.20
2018-05-08T10:44:34.316Z,29.15
2018-05-08T10:46:26.096Z,28.69
2018-05-08T10:47:26.043Z,28.94
2018-05-08T10:49:17.842Z,28.67
2018-05-08T10:50:17.781Z,28.95
2018-05-08T10:52:09.560Z,28.88
2018-05-08T10:53:09.512Z,28.74
2018-05-08T10:55:01.301Z,28.52
2018-05-08T10:56:01.240Z,28.28
2018-05-08T10:57:53.014Z,28.42
2018-05-08T10:58:52.967Z,28.27
2018-05-08T11:00:44.758Z,28.51
2018-05-08T11:01:44.777Z,28.46
2018-05-08T11:03:36.486Z,28.30
2018-05-08T11:04:36.425Z,28.14
2018-05-08T11:06:28.204Z,27.81
2018-05-08T11:07:28.157Z,27.87
2018-05-08T11:09:20.007Z,27.21
2018-05-08T11:10:19.945Z,27.02
2018-05-08T11:12:11.722Z,26.87
2018-05-08T11:13:11.676Z,26.79
2018-05-08T11:15:03.465Z,26.64
2018-05-08T11:16:03.401Z,26.41
2018-05-08T11:17:55.174Z,26.32
2018-05-08T11:18:55.123Z,26.44
2018-05-08T11:20:46.913Z,26.27
2018-05-08T11:21:46.848Z,26.42
2018-05-08T11:23:38.663Z,26.46
2018-05-08T11:24:38.573Z,26.31
2018-05-08T11:26:30.368Z,26.28
2018-05-08T11:27:30.302Z,26.16
2018-05-08T11:29:22.084Z,25.96
2018-05-08T11:30:22.017Z,26.00
2018-05-08T11:32:13.800Z,25.85
2018-05-08T11:33:13.747Z,26.03
2018-05-08T11:35:05.516Z,25.98
2018-05-08T11:36:05.453Z,25.93
2018-05-08T11:37:57.219Z,25.96
2018-05-08T11:38:57.160Z,25.94
2018-05-08T11:40:48.929Z,25.93
2018-05-08T11:41:48.865Z,25.93
2018-05-08T11:43:40.640Z,25.82
2018-05-08T11:44:40.618Z,25.89
2018-05-08T11:46:32.390Z,25.82
2018-05-08T11:47:32.321Z,25.94
2018-05-08T11:49:24.098Z,26.19
2018-05-08T11:50:24.099Z,25.96
2018-05-08T11:52:15.824Z,25.71
2018-05-08T11:53:15.769Z,25.63
2018-05-08T11:55:07.553Z,25.57
2018-05-08T11:56:07.489Z,25.38
2018-05-08T11:57:59.290Z,25.42
2018-05-08T11:58:59.219Z,25.31
2018-05-08T12:00:50.993Z,25.53
2018-05-08T12:01:50.921Z,25.56
2018-05-08T12:03:42.680Z,25.57
2018-05-08T12:04:42.628Z,25.71
2018-05-08T12:06:34.416Z,25.66
2018-05-08T12:07:34.350Z,25.74
2018-05-08T12:09:26.149Z,25.66
2018-05-08T12:10:26.070Z,25.74
2018-05-08T12:12:17.849Z,25.51
2018-05-08T12:13:17.791Z,25.38
2018-05-08T12:15:09.589Z,25.44
2018-05-08T12:16:09.519Z,25.48
2018-05-08T12:18:01.287Z,25.66
2018-05-08T12:19:01.228Z,25.79
2018-05-08T12:20:52.999Z,25.94
2018-05-08T12:21:53.013Z,25.83
2018-05-08T12:23:44.697Z,25.72
2018-05-08T12:24:44.641Z,25.66
2018-05-08T12:26:36.413Z,25.67
2018-05-08T12:27:36.341Z,25.54
2018-05-08T12:29:28.207Z,25.63
2018-05-08T12:30:28.151Z,25.61
2018-05-08T12:32:19.938Z,25.64
2018-05-08T12:33:19.869Z,25.48
2018-05-08T12:35:11.641Z,25.51
2018-05-08T12:36:11.630Z,25.63
2018-05-08T12:38:03.369Z,25.38
2018-05-08T12:39:03.319Z,25.41
2018-05-08T12:40:55.092Z,25.51
2018-05-08T12:41:55.022Z,25.42
2018-05-08T12:43:46.809Z,25.39
2018-05-08T12:44:46.733Z,25.45
2018-05-08T12:46:38.509Z,25.31
2018-05-08T12:47:38.441Z,25.29
2018-05-08T12:49:30.204Z,25.38
2018-05-08T12:50:30.149Z,25.44
2018-05-08T12:52:21.918Z,25.59
2018-05-08T12:53:21.922Z,25.63
2018-05-08T12:55:13.646Z,25.56
2018-05-08T12:56:13.631Z,25.60
2018-05-08T12:58:05.317Z,25.85
2018-05-08T12:59:05.276Z,25.66
2018-05-08T13:00:57.044Z,25.30
2018-05-08T13:01:56.960Z,25.45
2018-05-08T13:03:48.733Z,25.54
2018-05-08T13:04:48.674Z,25.56
2018-05-08T13:06:40.474Z,25.66
2018-05-08T13:07:40.405Z,25.71
2018-05-08T13:09:32.191Z,25.69
2018-05-08T13:10:32.111Z,25.66
2018-05-08T13:12:23.882Z,25.83
2018-05-08T13:13:23.815Z,25.74
2018-05-08T13:15:15.597Z,25.71
2018-05-08T13:16:15.541Z,25.79
2018-05-08T13:18:07.324Z,25.81
2018-05-08T13:19:07.261Z,25.82
2018-05-08T13:20:59.056Z,25.83
2018-05-08T13:21:58.991Z,25.76
2018-05-08T13:23:50.752Z,25.85
2018-05-08T13:24:50.701Z,25.83
2018-05-08T13:26:42.472Z,25.82
2018-05-08T13:27:42.402Z,25.94
2018-05-08T13:29:34.175Z,25.85
2018-05-08T13:30:34.112Z,25.78
2018-05-08T13:32:25.906Z,25.78
2018-05-08T13:33:25.837Z,25.81
2018-05-08T13:35:17.609Z,25.96
2018-05-08T13:36:17.548Z,26.00
2018-05-08T13:38:09.305Z,25.79
2018-05-08T13:39:09.242Z,25.75
2018-05-08T13:41:01.013Z,25.63
2018-05-08T13:42:00.959Z,25.56
2018-05-08T13:43:52.839Z,25.56
2018-05-08T13:44:52.669Z,25.49
2018-05-08T13:46:44.442Z,25.41
2018-05-08T13:47:44.376Z,25.44
2018-05-08T13:49:36.147Z,25.67
2018-05-08T13:50:36.089Z,25.61
2018-05-08T13:52:27.862Z,25.98
2018-05-08T13:53:27.794Z,26.08
2018-05-08T13:55:19.561Z,26.27
2018-05-08T13:56:19.499Z,26.20
2018-05-08T13:58:11.279Z,26.08
2018-05-08T13:59:11.216Z,25.74
2018-05-08T14:01:02.996Z,25.59
2018-05-08T14:02:02.947Z,25.59
2018-05-08T14:03:54.738Z,25.81
2018-05-08T14:04:54.671Z,25.69
2018-05-08T14:06:46.585Z,25.81
2018-05-08T14:07:46.384Z,25.66
2018-05-08T14:09:38.138Z,25.85
2018-05-08T14:10:38.082Z,25.93
2018-05-08T14:12:29.852Z,25.96
2018-05-08T14:13:29.785Z,25.91
2018-05-08T14:15:21.688Z,25.91
2018-05-08T14:16:21.553Z,25.97
2018-05-08T14:18:13.333Z,25.90
2018-05-08T14:19:13.283Z,25.96
2018-05-08T14:21:05.027Z,25.96
2018-05-08T14:22:04.966Z,25.81
2018-05-08T14:23:56.753Z,25.89
2018-05-08T14:24:56.696Z,25.79
2018-05-08T14:26:48.463Z,25.81
2018-05-08T14:27:48.416Z,25.78
2018-05-08T14:29:40.207Z,25.85
2018-05-08T14:30:40.140Z,25.82
2018-05-08T14:32:31.935Z,26.01
2018-05-08T14:33:31.875Z,26.12
2018-05-08T14:35:23.646Z,25.91
2018-05-08T14:36:23.590Z,25.82
2018-05-08T14:38:15.379Z,25.91
2018-05-08T14:39:15.315Z,25.86
2018-05-08T14:41:07.106Z,25.82
2018-05-08T14:42:07.062Z,25.69
2018-05-08T14:43:58.832Z,25.74
2018-05-08T14:44:58.765Z,25.86
2018-05-08T14:46:50.538Z,25.60
2018-05-08T14:47:50.481Z,25.69
2018-05-08T14:49:42.252Z,25.63
2018-05-08T14:50:42.185Z,25.69
2018-05-08T14:52:33.958Z,25.76
2018-05-08T14:53:33.892Z,25.79
2018-05-08T14:55:25.682Z,25.81
2018-05-08T14:56:25.623Z,25.89
2018-05-08T14:58:17.385Z,25.59
2018-05-08T14:59:17.322Z,25.54
2018-05-08T15:01:09.096Z,25.57
2018-05-08T15:02:09.037Z,25.56
2018-05-08T15:04:00.803Z,25.78
2018-05-08T15:05:00.740Z,25.81
2018-05-08T15:06:52.520Z,25.83
2018-05-08T15:07:52.464Z,25.69
2018-05-08T15:09:44.253Z,25.69
2018-05-08T15:10:44.185Z,25.67
2018-05-08T15:12:35.972Z,25.64
2018-05-08T15:13:35.914Z,25.67
2018-05-08T15:15:27.712Z,25.81
2018-05-08T15:16:27.644Z,25.86
2018-05-08T15:18:19.429Z,25.86
2018-05-08T15:19:19.365Z,25.85
2018-05-08T15:21:11.148Z,25.83
2018-05-08T15:22:11.065Z,25.82
2018-05-08T15:24:02.835Z,25.86
2018-05-08T15:25:02.770Z,25.90
2018-05-08T15:26:54.533Z,25.94
2018-05-08T15:27:54.484Z,26.03
2018-05-08T15:29:46.277Z,25.83
2018-05-08T15:30:46.204Z,25.85
2018-05-08T15:32:37.966Z,25.83
2018-05-08T15:33:37.907Z,25.75
2018-05-08T15:35:29.679Z,25.74
2018-05-08T15:36:29.637Z,25.71
2018-05-08T15:38:21.399Z,25.67
2018-05-08T15:39:21.336Z,25.61
2018-05-08T15:41:13.095Z,25.57
2018-05-08T15:42:13.049Z,25.69
2018-05-08T15:44:04.818Z,25.71
2018-05-08T15:45:04.749Z,25.63
2018-05-08T15:46:56.512Z,25.53
2018-05-08T15:47:56.460Z,25.56
2018-05-08T15:49:48.243Z,25.53
2018-05-08T15:50:48.188Z,25.41
2018-05-08T15:52:39.978Z,25.44
2018-05-08T15:53:39.907Z,25.44
2018-05-08T15:55:31.697Z,25.49
2018-05-08T15:56:31.628Z,25.41
2018-05-08T15:58:23.416Z,25.45
2018-05-08T15:59:23.351Z,25.44
2018-05-08T16:01:15.161Z,25.38
2018-05-08T16:02:15.130Z,25.41
2018-05-08T16:04:06.888Z,25.38
2018-05-08T16:05:06.828Z,25.38
2018-05-08T16:06:58.598Z,25.44
2018-05-08T16:07:58.540Z,25.39
2018-05-08T16:09:50.310Z,25.39
2018-05-08T16:10:50.244Z,25.39
2018-05-08T16:12:42.065Z,25.44
2018-05-08T16:13:41.995Z,25.42
2018-05-08T16:15:33.775Z,25.44
2018-05-08T16:16:33.706Z,25.39
2018-05-08T16:18:25.501Z,25.29
2018-05-08T16:19:25.434Z,25.31
2018-05-08T16:21:17.229Z,25.35
2018-05-08T16:22:17.156Z,25.36
2018-05-08T16:24:08.972Z,25.45
2018-05-08T16:25:08.897Z,25.34
2018-05-08T16:27:00.667Z,25.31
2018-05-08T16:28:00.617Z,25.31
2018-05-08T16:29:52.406Z,25.29
2018-05-08T16:30:52.389Z,25.30
2018-05-08T16:32:44.096Z,25.23
2018-05-08T16:33:44.042Z,25.29
2018-05-08T16:35:35.815Z,25.11
2018-05-08T16:36:35.747Z,25.23
2018-05-08T16:38:27.521Z,25.12
2018-05-08T16:39:27.541Z,25.11
2018-05-08T16:41:19.336Z,25.16
2018-05-08T16:42:19.184Z,25.07
2018-05-08T16:44:10.942Z,25.01
2018-05-08T16:45:10.885Z,25.07
2018-05-08T16:47:02.669Z,24.98
2018-05-08T16:48:02.593Z,24.93
2018-05-08T16:49:54.469Z,24.98
2018-05-08T16:50:54.361Z,24.93
2018-05-08T16:52:46.124Z,24.89
2018-05-08T16:53:46.056Z,24.92
2018-05-08T16:55:37.815Z,24.94
2018-05-08T16:56:37.745Z,24.87
2018-05-08T16:58:29.508Z,24.86
2018-05-08T16:59:29.443Z,24.87
2018-05-08T17:01:21.268Z,24.90
2018-05-08T17:02:21.218Z,24.74
2018-05-08T17:04:13.015Z,24.80
2018-05-08T17:05:12.929Z,24.75
2018-05-08T17:07:04.718Z,24.67
2018-05-08T17:08:04.649Z,24.77
2018-05-08T17:09:56.435Z,24.64
2018-05-08T17:10:56.365Z,24.71
2018-05-08T17:12:48.143Z,24.63
2018-05-08T17:13:48.104Z,24.53
2018-05-08T17:15:39.881Z,24.55
2018-05-08T17:16:39.819Z,24.56
2018-05-08T17:18:31.584Z,24.49
2018-05-08T17:19:31.530Z,24.49
2018-05-08T17:21:23.422Z,24.44
2018-05-08T17:22:23.315Z,24.48
2018-05-08T17:24:15.169Z,24.45
2018-05-08T17:25:15.048Z,24.37
2018-05-08T17:27:06.839Z,24.39
2018-05-08T17:28:06.766Z,24.36
2018-05-08T17:29:58.560Z,24.31
2018-05-08T17:30:58.505Z,24.16
2018-05-08T17:32:50.278Z,24.21
2018-05-08T17:33:50.240Z,24.18
2018-05-08T17:35:42.008Z,24.16
2018-05-08T17:36:41.924Z,24.34
2018-05-08T17:38:33.782Z,24.30
2018-05-08T17:39:33.687Z,24.48
2018-05-08T17:41:25.496Z,25.02
2018-05-08T17:42:25.460Z,24.94
2018-05-08T17:44:17.259Z,24.70
2018-05-08T17:45:17.141Z,24.67
2018-05-08T17:47:08.918Z,24.39
2018-05-08T17:48:08.892Z,24.31
2018-05-08T17:50:00.631Z,24.12
2018-05-08T17:51:00.665Z,24.05
2018-05-08T17:52:52.444Z,23.90
2018-05-08T17:53:52.323Z,23.90
2018-05-08T17:55:44.178Z,23.77
2018-05-08T17:56:44.028Z,23.69
2018-05-08T17:58:35.818Z,23.72
2018-05-08T17:59:35.757Z,23.67
2018-05-08T18:01:27.541Z,23.62
2018-05-08T18:02:27.478Z,23.63
2018-05-08T18:04:19.390Z,23.60
2018-05-08T18:05:19.193Z,23.62
2018-05-08T18:07:10.973Z,23.45
2018-05-08T18:08:10.924Z,23.45
2018-05-08T18:10:02.701Z,23.37
2018-05-08T18:11:02.685Z,23.37
2018-05-08T18:12:54.431Z,23.25
2018-05-08T18:13:54.356Z,23.22
2018-05-08T18:15:46.154Z,23.16
2018-05-08T18:16:46.069Z,23.14
2018-05-08T18:18:37.910Z,23.16
2018-05-08T18:19:37.794Z,23.03
2018-05-08T18:21:29.577Z,22.97
2018-05-08T18:22:29.502Z,22.86
2018-05-08T18:24:21.291Z,22.88
2018-05-08T18:25:21.234Z,22.85